createdAt,value
2022-10-10T03:16:59.891Z,6.83
2022-10-10T03:20:29.281Z,6.63
2022-10-10T03:23:50.355Z,5.87
2022-10-10T03:27:10.122Z,5.37
2022-10-10T03:30:33.799Z,7.13
2022-10-10T03:34:01.708Z,8.33
2022-10-10T03:37:28.466Z,5.57
2022-10-10T03:40:57.227Z,7.77
2022-10-10T03:44:20.671Z,7.77
2022-10-10T03:47:42.181Z,12.17
2022-10-10T03:51:13.066Z,5.83
2022-10-10T03:54:34.409Z,5.87
2022-10-10T03:57:56.561Z,5.30
2022-10-10T04:01:19.413Z,5.17
2022-10-10T04:04:46.448Z,4.30
2022-10-10T04:08:17.071Z,5.73
2022-10-10T04:11:41.943Z,6.30
2022-10-10T04:15:03.980Z,8.50
2022-10-10T04:18:31.062Z,6.00
2022-10-10T04:21:52.334Z,4.83
2022-10-10T04:25:22.063Z,6.73
2022-10-10T04:28:53.695Z,21.60
2022-10-10T04:32:16.026Z,12.00
2022-10-10T04:35:38.717Z,7.17
2022-10-10T04:39:01.568Z,5.17
2022-10-10T04:42:41.842Z,7.67
2022-10-10T04:46:06.826Z,4.47
2022-10-10T04:49:32.533Z,5.87
2022-10-10T04:52:54.808Z,5.80
2022-10-10T04:56:27.006Z,6.47
2022-10-10T07:29:53.258Z,19.33
2022-10-10T07:33:15.406Z,10.83
2022-10-10T07:36:47.973Z,15.87
2022-10-10T07:40:17.200Z,17.60
2022-10-10T07:43:38.555Z,16.43
2022-10-10T07:47:08.112Z,16.33
2022-10-10T07:50:39.280Z,13.63
2022-10-10T07:53:59.541Z,15.17
2022-10-10T07:57:20.818Z,10.97
2022-10-10T08:00:49.241Z,11.47
2022-10-10T08:04:18.852Z,41.70
2022-10-10T08:07:44.902Z,78.17
2022-10-10T08:11:07.828Z,70.73
2022-10-10T08:14:37.603Z,59.50
2022-10-10T08:18:07.544Z,47.07
2022-10-10T08:21:46.374Z,30.23
2022-10-10T08:25:09.894Z,19.63
2022-10-10T08:28:32.374Z,17.47
2022-10-10T08:31:58.187Z,12.83
2022-10-10T08:35:21.874Z,12.73
2022-10-10T08:38:51.052Z,11.53
2022-10-10T08:42:32.943Z,11.17
2022-10-10T08:45:59.656Z,10.40
2022-10-10T08:49:35.523Z,10.13
2022-10-10T08:53:13.044Z,8.60
2022-10-10T08:56:58.901Z,9.33
2022-10-10T09:00:30.210Z,12.03
2022-10-10T09:04:00.968Z,6.13
2022-10-10T09:07:40.422Z,8.43
2022-10-10T09:11:10.264Z,12.60
2022-10-10T09:14:53.387Z,8.30
2022-10-10T09:18:33.675Z,33.60
2022-10-10T09:22:00.823Z,11.73
2022-10-10T09:25:36.006Z,17.83
2022-10-10T09:29:06.236Z,12.13
2022-10-10T09:32:36.490Z,13.87
2022-10-10T09:36:07.872Z,10.13
2022-10-10T09:39:42.093Z,7.50
2022-10-10T09:43:09.086Z,5.57
2022-10-10T09:46:32.720Z,5.67
2022-10-10T09:50:09.747Z,5.87
2022-10-10T09:53:32.177Z,7.27
2022-10-10T09:57:04.959Z,5.70
2022-10-10T10:00:49.268Z,10.90
2022-10-10T10:04:32.817Z,5.60
2022-10-10T10:08:06.981Z,6.07
2022-10-10T10:11:42.005Z,7.70
2022-10-10T10:15:12.027Z,6.93
2022-10-10T10:18:38.003Z,5.60
2022-10-10T10:22:06.012Z,5.63
2022-10-10T10:25:57.569Z,7.60
2022-10-10T10:29:46.092Z,9.33
2022-10-10T10:33:32.360Z,6.27
2022-10-10T10:37:05.580Z,6.63
2022-10-10T10:40:45.420Z,5.93
2022-10-10T10:44:30.529Z,8.13
2022-10-10T10:48:25.070Z,6.80
2022-10-10T10:52:05.933Z,4.67
2022-10-10T10:55:43.380Z,7.10
2022-10-10T11:00:17.238Z,10.10
2022-10-10T11:05:21.126Z,8.30
2022-10-10T11:07:25.245Z,5.73
2022-10-10T11:11:07.408Z,7.17
2022-10-10T11:14:47.713Z,9.90
2022-10-10T11:18:29.035Z,9.77
2022-10-10T11:22:02.361Z,6.43
2022-10-10T11:25:32.943Z,7.13
2022-10-10T11:29:03.940Z,4.50
2022-10-10T11:32:47.802Z,8.87
2022-10-10T11:36:25.732Z,5.23
2022-10-10T11:40:00.385Z,4.93
2022-10-10T11:43:35.628Z,7.67
2022-10-10T11:47:10.153Z,10.80
2022-10-10T11:50:41.821Z,8.27
2022-10-10T11:54:18.108Z,7.30
2022-10-10T11:57:53.795Z,9.07
2022-10-10T12:01:28.057Z,11.13
2022-10-10T12:04:58.036Z,10.53
2022-10-10T12:08:29.164Z,7.83
2022-10-10T12:15:59.462Z,8.63
2022-10-10T12:19:32.959Z,10.50
2022-10-10T12:22:58.224Z,9.43
2022-10-10T12:26:35.862Z,11.60
2022-10-10T12:30:40.624Z,13.63
2022-10-10T12:34:19.169Z,14.30
2022-10-10T12:37:45.369Z,8.93
2022-10-10T12:41:27.967Z,14.47
2022-10-10T12:45:00.598Z,9.13
2022-10-10T12:48:41.048Z,9.67
2022-10-10T12:52:16.190Z,7.33
2022-10-10T12:55:43.968Z,9.37
2022-10-10T12:59:14.119Z,8.90
2022-10-10T13:02:43.291Z,11.10
2022-10-10T13:06:21.444Z,9.07
2022-10-10T13:09:50.290Z,10.87
2022-10-10T13:13:16.999Z,9.13
2022-10-10T13:16:47.995Z,10.90
2022-10-10T13:20:19.570Z,9.43
2022-10-10T13:27:49.162Z,7.53
2022-10-10T13:31:16.837Z,12.00
2022-10-10T13:34:46.406Z,10.20
2022-10-10T13:38:17.573Z,7.77
2022-10-10T13:42:00.376Z,10.87
2022-10-10T13:45:44.316Z,10.07
2022-10-10T13:49:10.192Z,10.27
2022-10-10T13:52:39.867Z,9.90
2022-10-10T13:56:09.753Z,9.03
2022-10-10T13:59:47.292Z,8.53
2022-10-10T14:03:08.417Z,9.53
2022-10-10T14:06:41.269Z,11.97
2022-10-10T14:10:12.174Z,10.57
2022-10-10T14:13:37.985Z,11.27
2022-10-10T14:17:31.702Z,15.10
2022-10-10T14:20:56.508Z,12.50
2022-10-10T14:24:23.371Z,11.33
2022-10-10T14:27:46.153Z,10.10
2022-10-10T14:31:13.321Z,9.07
2022-10-10T14:34:46.025Z,7.37
2022-10-10T14:38:09.918Z,11.00
2022-10-10T14:41:31.709Z,10.00
2022-10-10T14:45:05.931Z,8.57
2022-10-10T14:48:41.000Z,10.83
2022-10-10T14:52:11.326Z,8.27
2022-10-10T14:55:38.489Z,11.07
2022-10-10T14:59:02.973Z,8.07
2022-10-10T15:02:34.155Z,8.57
2022-10-10T15:06:05.347Z,12.17
2022-10-10T15:09:57.685Z,8.97
2022-10-10T15:13:27.735Z,7.30
2022-10-10T15:16:53.444Z,10.53
2022-10-10T15:20:25.295Z,9.13
2022-10-10T15:27:28.346Z,14.10
2022-10-10T15:30:52.957Z,11.03
2022-10-10T15:34:17.906Z,7.97
2022-10-10T15:37:49.295Z,8.30
2022-10-10T15:41:15.365Z,10.30
2022-10-10T15:44:49.094Z,8.83
2022-10-10T15:48:17.620Z,14.03
2022-10-10T15:51:45.028Z,16.63
2022-10-10T15:55:08.485Z,11.10
2022-10-10T15:58:34.387Z,15.13
2022-10-10T16:02:08.331Z,9.00
2022-10-10T16:05:42.105Z,13.10
2022-10-10T16:09:26.717Z,10.17
2022-10-10T16:12:54.177Z,26.77
2022-10-10T16:16:30.556Z,19.53
2022-10-10T16:20:02.161Z,15.67
2022-10-10T16:23:28.979Z,12.70
2022-10-10T16:26:50.680Z,12.27
2022-10-10T16:30:17.697Z,12.37
2022-10-10T16:33:37.152Z,9.57
2022-10-10T16:37:19.891Z,12.10
2022-10-10T16:40:59.876Z,20.87
2022-10-10T16:44:20.967Z,17.63
2022-10-10T16:47:44.816Z,18.07
2022-10-10T16:51:17.120Z,24.37
2022-10-10T16:54:51.792Z,42.97
2022-10-10T16:58:28.421Z,17.70
2022-10-10T17:01:55.087Z,14.67
2022-10-10T17:05:28.019Z,15.80
2022-10-10T17:08:59.230Z,11.57
2022-10-10T17:12:28.625Z,16.70
2022-10-10T17:16:21.829Z,17.77
2022-10-10T17:19:41.113Z,18.03
2022-10-10T17:23:06.348Z,11.47
2022-10-10T17:26:38.484Z,22.23
2022-10-10T17:30:06.382Z,19.37
2022-10-10T17:33:32.055Z,23.87
2022-10-10T17:37:02.425Z,18.23
2022-10-10T17:40:30.492Z,23.03
2022-10-10T17:43:53.696Z,19.03
2022-10-10T17:47:36.436Z,17.10
2022-10-10T17:51:12.296Z,26.90
2022-10-10T17:54:38.356Z,25.67
2022-10-10T17:58:02.648Z,27.37
2022-10-10T18:01:31.361Z,31.03
2022-10-10T18:05:28.974Z,37.47
2022-10-10T18:09:03.109Z,27.97
2022-10-10T18:12:27.663Z,17.27
2022-10-10T18:16:06.132Z,24.80
2022-10-10T18:19:38.237Z,19.33
2022-10-10T18:26:42.249Z,20.53
2022-10-10T18:30:06.881Z,29.47
2022-10-10T18:33:32.814Z,23.10
2022-10-10T18:37:05.826Z,11.13
2022-10-10T18:40:50.398Z,15.77
2022-10-10T18:48:00.754Z,18.63
2022-10-10T18:51:50.596Z,22.77
2022-10-10T18:55:16.772Z,19.13
2022-10-10T18:58:52.161Z,18.90
2022-10-10T19:02:15.272Z,25.60
2022-10-10T19:05:45.282Z,19.33
2022-10-10T19:09:10.394Z,14.97
2022-10-10T19:12:38.036Z,21.37
2022-10-10T19:16:11.983Z,13.97
2022-10-10T19:19:41.359Z,27.17
2022-10-10T19:23:10.016Z,17.17
2022-10-10T19:26:33.890Z,29.57
2022-10-10T19:30:00.537Z,19.40
2022-10-10T19:33:30.915Z,20.93
2022-10-10T19:36:57.765Z,18.97
2022-10-10T19:40:34.569Z,16.83
2022-10-10T19:44:01.515Z,12.87
2022-10-10T19:47:31.867Z,12.43
2022-10-10T19:51:23.954Z,13.87
2022-10-10T19:55:00.812Z,16.90
2022-10-10T19:58:30.198Z,10.87
2022-10-10T20:02:10.829Z,15.17
2022-10-10T20:05:44.641Z,28.70
2022-10-10T20:09:18.811Z,18.87
2022-10-10T20:12:49.883Z,24.23
